Time;durP1;ratioP1;P1;durP2;ratioP2;P2;SDS_P1;SDS_P2;PMS_P1;PMS_P2;Temp;Humidity;BMP_temperature;BMP_pressure;BME280_temperature;BME280_humidity;BME280_pressure;Samples;Min_cycle;Max_cycle;Signal;HPM_P1;HPM_P2
2021/12/13 00:00:16;;;;;;;;;;;11.30;99.90;;;;;;7344767;19;111086;-78
2021/12/13 00:02:49;;;;;;;;;;;11.30;99.90;;;;;;7346509;19;111746;-78
2021/12/13 00:05:22;;;;;;;;;;;11.30;99.90;;;;;;7349433;19;109188;-78
2021/12/13 00:07:57;;;;;;;;;;;11.30;99.90;;;;;;7346433;19;110695;-78
2021/12/13 00:10:30;;;;;;;;;;;11.30;99.90;;;;;;7346731;19;111677;-78
2021/12/13 00:13:03;;;;;;;;;;;11.30;99.90;;;;;;7346138;19;111104;-78
2021/12/13 00:15:32;;;;;;;;;;;11.20;99.90;;;;;;7347338;19;112940;-78
2021/12/13 00:18:02;;;;;;;;;;;11.20;99.90;;;;;;7346259;19;109381;-77
2021/12/13 00:20:40;;;;;;;;;;;11.20;99.90;;;;;;7339526;19;110773;-78
2021/12/13 00:23:18;;;;;;;;;;;11.20;99.90;;;;;;7344172;19;110884;-78
2021/12/13 00:25:46;;;;;;;;;;;11.30;99.90;;;;;;7342372;19;109920;-77
2021/12/13 00:28:16;;;;;;;;;;;11.20;99.90;;;;;;7346347;19;113003;-78
2021/12/13 00:30:52;;;;;;;;;;;11.20;99.90;;;;;;7343516;19;111932;-77
2021/12/13 00:33:26;;;;;;;;;;;11.20;99.90;;;;;;7343678;19;110324;-78
2021/12/13 00:35:59;;;;;;;;;;;11.20;99.90;;;;;;7349292;19;111266;-78
2021/12/13 00:38:28;;;;;;;;;;;11.20;99.90;;;;;;7339039;19;111073;-78
2021/12/13 00:41:03;;;;;;;;;;;11.20;99.90;;;;;;7343222;19;110873;-77
2021/12/13 00:43:50;;;;;;;;;;;11.20;99.90;;;;;;7340577;19;111714;-77
2021/12/13 00:46:18;;;;;;;;;;;11.20;99.90;;;;;;7340680;19;109580;-77
2021/12/13 00:48:48;;;;;;;;;;;11.20;99.90;;;;;;7343673;19;110911;-78
2021/12/13 00:51:26;;;;;;;;;;;11.20;99.90;;;;;;7339112;19;111966;-77
2021/12/13 00:53:58;;;;;;;;;;;11.20;99.90;;;;;;7343803;19;111421;-78
2021/12/13 00:56:44;;;;;;;;;;;11.20;99.90;;;;;;7342770;19;110783;-77
2021/12/13 00:59:13;;;;;;;;;;;11.20;99.90;;;;;;7344063;19;111914;-78
2021/12/13 01:01:40;;;;;;;;;;;11.20;99.90;;;;;;7342636;19;111459;-78
2021/12/13 01:04:13;;;;;;;;;;;11.20;99.90;;;;;;7339723;19;112496;-79
2021/12/13 01:06:39;;;;;;;;;;;11.20;99.90;;;;;;7341599;19;109792;-78
2021/12/13 01:09:25;;;;;;;;;;;11.20;99.90;;;;;;7342836;19;110665;-78
2021/12/13 01:11:56;;;;;;;;;;;11.20;99.90;;;;;;7339108;19;111605;-77
2021/12/13 01:14:31;;;;;;;;;;;11.20;99.90;;;;;;7343726;19;109449;-77
2021/12/13 01:17:09;;;;;;;;;;;11.20;99.90;;;;;;7342389;19;111084;-78
2021/12/13 01:19:54;;;;;;;;;;;11.20;99.90;;;;;;7345033;19;113186;-78
2021/12/13 01:27:28;;;;;;;;;;;11.20;99.90;;;;;;7346439;19;110151;-78
2021/12/13 01:29:55;;;;;;;;;;;11.20;99.90;;;;;;7341669;19;111109;-77
2021/12/13 01:32:23;;;;;;;;;;;11.10;99.90;;;;;;7344153;19;111757;-77
2021/12/13 01:34:50;;;;;;;;;;;11.10;99.90;;;;;;7339435;19;110196;-78
2021/12/13 01:37:17;;;;;;;;;;;11.10;99.90;;;;;;7345120;19;110647;-78
2021/12/13 01:39:50;;;;;;;;;;;11.10;99.90;;;;;;7340845;19;112066;-78
2021/12/13 01:42:19;;;;;;;;;;;11.10;99.90;;;;;;7343904;19;110062;-78
2021/12/13 01:44:49;;;;;;;;;;;11.20;99.90;;;;;;7351327;19;110701;-78
2021/12/13 01:47:19;;;;;;;;;;;11.10;99.90;;;;;;7343488;19;109370;-78
2021/12/13 01:49:48;;;;;;;;;;;11.20;99.90;;;;;;7346090;19;110702;-78
2021/12/13 01:52:23;;;;;;;;;;;11.10;99.90;;;;;;7341808;19;111698;-78
2021/12/13 01:54:51;;;;;;;;;;;11.10;99.90;;;;;;7344636;19;109518;-78
2021/12/13 02:00:08;;;;;;;;;;;11.10;99.90;;;;;;7341747;19;111738;-78
2021/12/13 02:02:36;;;;;;;;;;;11.20;99.90;;;;;;7345620;19;109458;-77
2021/12/13 02:05:08;;;;;;;;;;;11.20;99.90;;;;;;7347695;19;111074;-78
2021/12/13 02:07:41;;;;;;;;;;;11.20;99.90;;;;;;7344017;19;109910;-78
2021/12/13 02:10:11;;;;;;;;;;;11.10;99.90;;;;;;7343917;19;110621;-78
2021/12/13 02:12:41;;;;;;;;;;;11.10;99.90;;;;;;7341736;19;113123;-78
2021/12/13 02:18:16;;;;;;;;;;;11.20;99.90;;;;;;7341987;19;110580;-78
2021/12/13 02:20:45;;;;;;;;;;;11.10;99.90;;;;;;7347283;19;112858;-78
2021/12/13 02:23:12;;;;;;;;;;;11.10;99.90;;;;;;7347081;19;109882;-78
2021/12/13 02:25:39;;;;;;;;;;;11.10;99.90;;;;;;7349730;19;111208;-78
2021/12/13 02:28:14;;;;;;;;;;;11.10;99.90;;;;;;7356734;19;110809;-78
2021/12/13 02:30:40;;;;;;;;;;;11.10;99.90;;;;;;7349514;19;110775;-78
2021/12/13 02:33:10;;;;;;;;;;;11.10;99.90;;;;;;7351564;19;111862;-78
2021/12/13 02:35:39;;;;;;;;;;;11.10;99.90;;;;;;7349378;19;109239;-78
2021/12/13 02:38:06;;;;;;;;;;;11.10;99.90;;;;;;7351300;19;109576;-78
2021/12/13 02:40:33;;;;;;;;;;;11.10;99.90;;;;;;7347884;19;111811;-78
2021/12/13 02:43:01;;;;;;;;;;;11.10;99.90;;;;;;7350410;19;109662;-78
2021/12/13 02:45:34;;;;;;;;;;;11.10;99.90;;;;;;7349103;19;111004;-78
2021/12/13 02:48:06;;;;;;;;;;;11.10;99.90;;;;;;7345749;19;111608;-78
2021/12/13 02:50:36;;;;;;;;;;;11.10;99.90;;;;;;7356735;19;110070;-78
2021/12/13 02:53:03;;;;;;;;;;;11.10;99.90;;;;;;7347154;19;113398;-78
2021/12/13 02:55:30;;;;;;;;;;;11.10;99.90;;;;;;7351427;19;109617;-78
2021/12/13 02:57:59;;;;;;;;;;;11.10;99.90;;;;;;7346417;19;110290;-78
2021/12/13 03:00:52;;;;;;;;;;;11.10;99.90;;;;;;7349454;19;111863;-78
2021/12/13 03:03:21;;;;;;;;;;;11.00;99.90;;;;;;7345067;19;110097;-77
2021/12/13 03:05:50;;;;;;;;;;;11.00;99.90;;;;;;7349411;19;110763;-78
2021/12/13 03:08:26;;;;;;;;;;;11.00;99.90;;;;;;7348859;19;113116;-78
2021/12/13 03:10:55;;;;;;;;;;;11.00;99.90;;;;;;7346700;19;112600;-78
2021/12/13 03:13:22;;;;;;;;;;;11.00;99.90;;;;;;7354597;19;110839;-78
2021/12/13 03:15:51;;;;;;;;;;;11.00;99.90;;;;;;7348258;19;109445;-78
2021/12/13 03:18:21;;;;;;;;;;;11.00;99.90;;;;;;7348286;19;110826;-78
2021/12/13 03:20:54;;;;;;;;;;;11.00;99.90;;;;;;7344532;19;112022;-78
2021/12/13 03:23:24;;;;;;;;;;;11.00;99.90;;;;;;7348383;19;109524;-78
2021/12/13 03:26:09;;;;;;;;;;;11.00;99.90;;;;;;7350166;19;112832;-78
2021/12/13 03:28:42;;;;;;;;;;;11.00;99.90;;;;;;7343359;19;111814;-77
2021/12/13 03:31:11;;;;;;;;;;;11.00;99.90;;;;;;7347085;19;111031;-78
2021/12/13 03:33:38;;;;;;;;;;;11.00;99.90;;;;;;7347603;19;110763;-77
2021/12/13 03:36:07;;;;;;;;;;;11.00;99.90;;;;;;7353228;19;112278;-78
2021/12/13 03:38:36;;;;;;;;;;;11.00;99.90;;;;;;7349406;19;110889;-78
2021/12/13 03:41:05;;;;;;;;;;;11.00;99.90;;;;;;7345474;19;112018;-77
2021/12/13 03:43:34;;;;;;;;;;;11.00;99.90;;;;;;7345186;19;109443;-78
2021/12/13 03:46:03;;;;;;;;;;;11.00;99.90;;;;;;7340833;19;111321;-78
2021/12/13 03:48:30;;;;;;;;;;;11.00;99.90;;;;;;7344168;19;111798;-77
2021/12/13 03:50:59;;;;;;;;;;;11.00;99.90;;;;;;7341247;19;110701;-77
2021/12/13 03:53:28;;;;;;;;;;;11.00;99.90;;;;;;7342204;19;110672;-77
2021/12/13 03:56:03;;;;;;;;;;;11.00;99.90;;;;;;7345099;19;113954;-77
2021/12/13 03:58:35;;;;;;;;;;;11.00;99.90;;;;;;7346790;19;109513;-77
2021/12/13 04:01:28;;;;;;;;;;;11.00;99.90;;;;;;7344340;19;112078;-77
2021/12/13 04:03:57;;;;;;;;;;;11.00;99.90;;;;;;7340368;19;109418;-77
2021/12/13 04:06:24;;;;;;;;;;;11.00;99.90;;;;;;7345275;19;111836;-78
2021/12/13 04:08:52;;;;;;;;;;;11.00;99.90;;;;;;7341586;19;112367;-78
2021/12/13 04:11:21;;;;;;;;;;;11.00;99.90;;;;;;7342555;19;109423;-78
2021/12/13 04:14:00;;;;;;;;;;;11.00;99.90;;;;;;7343611;19;111242;-77
2021/12/13 04:16:48;;;;;;;;;;;10.90;99.90;;;;;;7341423;19;111887;-77
2021/12/13 04:19:18;;;;;;;;;;;11.00;99.90;;;;;;7348296;19;109691;-78
2021/12/13 04:21:47;;;;;;;;;;;11.00;99.90;;;;;;7339415;19;111803;-78
2021/12/13 04:24:40;;;;;;;;;;;10.90;99.90;;;;;;7342235;19;110377;-77
2021/12/13 04:27:09;;;;;;;;;;;11.00;99.90;;;;;;7342533;19;111783;-77
2021/12/13 04:29:39;;;;;;;;;;;11.00;99.90;;;;;;7339823;19;111687;-78
2021/12/13 04:32:12;;;;;;;;;;;11.00;99.90;;;;;;7341649;19;110459;-78
2021/12/13 04:34:42;;;;;;;;;;;11.00;99.90;;;;;;7340726;19;110894;-77
2021/12/13 04:37:14;;;;;;;;;;;10.90;99.90;;;;;;7341946;19;111852;-78
2021/12/13 04:39:41;;;;;;;;;;;10.90;99.90;;;;;;7343725;19;110674;-78
2021/12/13 04:42:14;;;;;;;;;;;10.90;99.90;;;;;;7344135;19;111779;-77
2021/12/13 04:44:49;;;;;;;;;;;10.90;99.90;;;;;;7342612;19;110170;-78
2021/12/13 04:47:18;;;;;;;;;;;10.90;99.90;;;;;;7341293;19;111780;-77
2021/12/13 04:49:51;;;;;;;;;;;10.90;99.90;;;;;;7345341;19;111868;-78
2021/12/13 04:52:19;;;;;;;;;;;10.90;99.90;;;;;;7344425;19;109969;-78
2021/12/13 04:54:52;;;;;;;;;;;10.90;99.90;;;;;;7346476;19;110955;-77
2021/12/13 04:57:19;;;;;;;;;;;10.90;99.90;;;;;;7343456;19;111642;-77
2021/12/13 04:59:51;;;;;;;;;;;10.90;99.90;;;;;;7340055;19;110289;-78
2021/12/13 05:02:18;;;;;;;;;;;10.90;99.90;;;;;;7341873;19;111441;-78
2021/12/13 05:04:45;;;;;;;;;;;10.90;99.90;;;;;;7346185;19;111805;-77
2021/12/13 05:07:12;;;;;;;;;;;10.90;99.90;;;;;;7343930;19;110878;-78
2021/12/13 05:09:39;;;;;;;;;;;10.90;99.90;;;;;;7342321;19;111732;-77
2021/12/13 05:12:13;;;;;;;;;;;10.90;99.90;;;;;;7339948;19;109552;-78
2021/12/13 05:14:42;;;;;;;;;;;10.90;99.90;;;;;;7343742;19;110645;-77
2021/12/13 05:17:11;;;;;;;;;;;10.90;99.90;;;;;;7335793;19;111633;-78
2021/12/13 05:19:40;;;;;;;;;;;10.90;99.90;;;;;;7346716;19;110083;-77
2021/12/13 05:22:09;;;;;;;;;;;10.90;99.90;;;;;;7338546;19;110900;-78
2021/12/13 05:24:42;;;;;;;;;;;10.90;99.90;;;;;;7339477;19;112006;-77
2021/12/13 05:27:11;;;;;;;;;;;10.90;99.90;;;;;;7346421;19;109250;-78
2021/12/13 05:29:41;;;;;;;;;;;10.90;99.90;;;;;;7337402;19;111650;-77
2021/12/13 05:32:11;;;;;;;;;;;10.90;99.90;;;;;;7343166;19;110743;-78
2021/12/13 05:34:41;;;;;;;;;;;10.90;99.90;;;;;;7337447;19;110979;-78
2021/12/13 05:37:08;;;;;;;;;;;10.90;99.90;;;;;;7339760;19;112649;-77
2021/12/13 05:39:36;;;;;;;;;;;10.90;99.90;;;;;;7337896;19;109581;-77
2021/12/13 05:42:06;;;;;;;;;;;10.90;99.90;;;;;;7340696;19;110664;-77
2021/12/13 05:44:34;;;;;;;;;;;10.90;99.90;;;;;;7337856;19;112666;-77
2021/12/13 05:47:05;;;;;;;;;;;10.90;99.90;;;;;;7339194;19;109697;-78
2021/12/13 05:49:34;;;;;;;;;;;10.90;99.90;;;;;;7345430;19;111159;-77
2021/12/13 05:52:07;;;;;;;;;;;10.90;99.90;;;;;;7341487;19;109416;-77
2021/12/13 05:54:35;;;;;;;;;;;10.90;99.90;;;;;;7347114;19;113041;-77
2021/12/13 05:57:08;;;;;;;;;;;10.90;99.90;;;;;;7347112;19;114717;-77
2021/12/13 05:59:37;;;;;;;;;;;10.90;99.90;;;;;;7344447;19;112931;-78
2021/12/13 06:02:12;;;;;;;;;;;10.90;99.90;;;;;;7345526;19;110850;-78
2021/12/13 06:04:39;;;;;;;;;;;10.90;99.90;;;;;;7346797;19;111608;-78
2021/12/13 06:07:23;;;;;;;;;;;10.90;99.90;;;;;;7350172;19;110747;-77
2021/12/13 06:10:02;;;;;;;;;;;10.90;99.90;;;;;;7349831;19;110673;-78
2021/12/13 06:12:31;;;;;;;;;;;10.90;99.90;;;;;;7349473;19;111968;-77
2021/12/13 06:15:04;;;;;;;;;;;10.90;99.90;;;;;;7345311;19;111065;-77
2021/12/13 06:17:32;;;;;;;;;;;10.80;99.90;;;;;;7346482;19;111968;-78
2021/12/13 06:20:02;;;;;;;;;;;10.80;99.90;;;;;;7343273;19;110718;-78
2021/12/13 06:22:30;;;;;;;;;;;10.80;99.90;;;;;;7346053;19;112788;-79
2021/12/13 06:25:00;;;;;;;;;;;10.90;99.90;;;;;;7342393;19;112511;-79
2021/12/13 06:27:32;;;;;;;;;;;10.90;99.90;;;;;;7347878;19;110134;-80
2021/12/13 06:30:07;;;;;;;;;;;10.90;99.90;;;;;;7334910;19;110648;-79
2021/12/13 06:32:34;;;;;;;;;;;10.90;99.90;;;;;;7344613;19;111673;-80
2021/12/13 06:35:20;;;;;;;;;;;10.90;99.90;;;;;;7349914;19;110778;-80
2021/12/13 06:37:47;;;;;;;;;;;10.80;99.90;;;;;;7347149;19;111552;-78
2021/12/13 06:40:17;;;;;;;;;;;10.80;99.90;;;;;;7349137;19;109447;-78
2021/12/13 06:42:44;;;;;;;;;;;10.80;99.90;;;;;;7347672;19;113520;-80
2021/12/13 06:45:22;;;;;;;;;;;10.80;99.90;;;;;;7343131;19;112161;-79
2021/12/13 06:47:51;;;;;;;;;;;10.80;99.90;;;;;;7350582;19;110980;-78
2021/12/13 06:50:20;;;;;;;;;;;10.80;99.90;;;;;;7344457;19;110778;-79
2021/12/13 06:52:47;;;;;;;;;;;10.80;99.90;;;;;;7348843;19;111932;-77
2021/12/13 06:55:15;;;;;;;;;;;10.80;99.90;;;;;;7353392;19;109438;-77
2021/12/13 06:57:46;;;;;;;;;;;10.80;99.90;;;;;;7348288;19;111819;-77
2021/12/13 07:00:13;;;;;;;;;;;10.80;99.90;;;;;;7345813;19;109749;-77
2021/12/13 07:02:42;;;;;;;;;;;10.80;99.90;;;;;;7347183;19;112669;-78
2021/12/13 07:05:13;;;;;;;;;;;10.80;99.90;;;;;;7342811;19;111869;-78
2021/12/13 07:07:55;;;;;;;;;;;10.80;99.90;;;;;;7348335;19;109249;-78
2021/12/13 07:10:42;;;;;;;;;;;10.80;99.90;;;;;;7349807;19;110903;-78
2021/12/13 07:13:24;;;;;;;;;;;10.80;99.90;;;;;;7346421;19;111756;-77
2021/12/13 07:16:01;;;;;;;;;;;10.80;99.90;;;;;;7348263;19;109293;-78
2021/12/13 07:18:44;;;;;;;;;;;10.80;99.90;;;;;;7351165;19;110610;-78
2021/12/13 07:21:19;;;;;;;;;;;10.80;99.90;;;;;;7346018;19;109508;-78
2021/12/13 07:23:54;;;;;;;;;;;10.80;99.90;;;;;;7349524;19;110609;-77
2021/12/13 07:26:36;;;;;;;;;;;10.80;99.90;;;;;;7345605;19;111580;-77
2021/12/13 07:29:13;;;;;;;;;;;10.80;99.90;;;;;;7348959;19;109360;-77
2021/12/13 07:31:41;;;;;;;;;;;10.80;99.90;;;;;;7346039;19;110642;-77
2021/12/13 07:34:13;;;;;;;;;;;10.70;99.90;;;;;;7346999;19;112207;-78
2021/12/13 07:36:40;;;;;;;;;;;10.70;99.90;;;;;;7350604;19;109297;-77
2021/12/13 07:39:10;;;;;;;;;;;10.80;99.90;;;;;;7348204;19;110659;-77
2021/12/13 07:41:40;;;;;;;;;;;10.80;99.90;;;;;;7353770;19;110038;-78
2021/12/13 07:44:07;;;;;;;;;;;10.80;99.90;;;;;;7346810;19;114816;-78
2021/12/13 07:46:34;;;;;;;;;;;10.80;99.90;;;;;;7348165;19;112139;-78
2021/12/13 07:49:05;;;;;;;;;;;10.80;99.90;;;;;;7346414;19;110365;-78
2021/12/13 07:51:37;;;;;;;;;;;10.80;99.90;;;;;;7348848;19;110564;-78
2021/12/13 07:54:06;;;;;;;;;;;10.80;99.90;;;;;;7346008;19;113029;-78
2021/12/13 07:56:36;;;;;;;;;;;10.70;99.90;;;;;;7347477;19;109311;-78
2021/12/13 07:59:10;;;;;;;;;;;10.80;99.90;;;;;;7348570;19;109673;-77
2021/12/13 08:01:42;;;;;;;;;;;10.80;99.90;;;;;;7346200;19;111678;-77
2021/12/13 08:04:15;;;;;;;;;;;10.80;99.90;;;;;;7355029;19;110617;-77
2021/12/13 08:06:44;;;;;;;;;;;10.80;99.90;;;;;;7346343;19;112050;-77
2021/12/13 08:09:13;;;;;;;;;;;10.70;99.90;;;;;;7348964;19;109409;-77
2021/12/13 08:11:42;;;;;;;;;;;10.70;99.90;;;;;;7346907;19;111351;-77
2021/12/13 08:14:09;;;;;;;;;;;10.80;99.90;;;;;;7347099;19;113223;-78
2021/12/13 08:16:39;;;;;;;;;;;10.70;99.90;;;;;;7349276;19;109332;-78
2021/12/13 08:19:17;;;;;;;;;;;10.80;99.90;;;;;;7346371;19;109260;-77
2021/12/13 08:21:56;;;;;;;;;;;10.70;99.90;;;;;;7347191;19;112366;-77
2021/12/13 08:24:26;;;;;;;;;;;10.80;99.90;;;;;;7346463;19;109419;-78
2021/12/13 08:26:55;;;;;;;;;;;10.80;99.90;;;;;;7349289;19;111597;-78
2021/12/13 08:29:27;;;;;;;;;;;10.80;99.90;;;;;;7347190;19;109492;-77
2021/12/13 08:31:54;;;;;;;;;;;10.80;99.90;;;;;;7347072;19;110617;-76
2021/12/13 08:34:30;;;;;;;;;;;10.80;99.90;;;;;;7345657;19;111800;-77
2021/12/13 08:36:57;;;;;;;;;;;10.80;99.90;;;;;;7349788;19;109397;-77
2021/12/13 08:39:25;;;;;;;;;;;10.80;99.90;;;;;;7345491;19;110864;-77
2021/12/13 08:41:57;;;;;;;;;;;10.80;99.90;;;;;;7347498;19;112043;-78
2021/12/13 08:44:35;;;;;;;;;;;10.80;99.90;;;;;;7345567;19;109362;-77
2021/12/13 08:47:06;;;;;;;;;;;10.80;99.90;;;;;;7352218;19;110713;-77
2021/12/13 08:49:36;;;;;;;;;;;10.80;99.90;;;;;;7346042;19;109383;-77
2021/12/13 08:52:21;;;;;;;;;;;10.80;99.90;;;;;;7345408;19;110625;-77
2021/12/13 08:54:54;;;;;;;;;;;10.80;99.90;;;;;;7347904;19;112046;-78
2021/12/13 08:57:36;;;;;;;;;;;10.80;99.90;;;;;;7345037;19;109270;-77
2021/12/13 09:00:12;;;;;;;;;;;10.80;99.90;;;;;;7345922;19;110702;-78
2021/12/13 09:03:08;;;;;;;;;;;10.80;99.90;;;;;;7344098;19;111914;-77
2021/12/13 09:05:56;;;;;;;;;;;10.70;99.90;;;;;;7341964;19;109479;-78
2021/12/13 09:08:26;;;;;;;;;;;10.80;99.90;;;;;;7343596;19;110658;-77
2021/12/13 09:10:53;;;;;;;;;;;10.80;99.90;;;;;;7352753;19;112784;-76
2021/12/13 09:13:35;;;;;;;;;;;10.70;99.90;;;;;;7344931;19;110578;-77
2021/12/13 09:16:02;;;;;;;;;;;10.80;99.90;;;;;;7345282;19;111643;-78
2021/12/13 09:18:29;;;;;;;;;;;10.80;99.90;;;;;;7344582;19;109558;-77
2021/12/13 09:20:58;;;;;;;;;;;10.80;99.90;;;;;;7346109;19;111345;-78
2021/12/13 09:23:28;;;;;;;;;;;10.80;99.90;;;;;;7342677;19;111881;-78
2021/12/13 09:26:04;;;;;;;;;;;10.80;99.90;;;;;;7341863;19;109507;-77
2021/12/13 09:28:51;;;;;;;;;;;10.80;99.90;;;;;;7345814;19;110345;-77
2021/12/13 09:31:44;;;;;;;;;;;10.80;99.90;;;;;;7341457;19;111945;-78
2021/12/13 09:34:14;;;;;;;;;;;10.80;99.90;;;;;;7345975;19;110322;-77
2021/12/13 09:36:43;;;;;;;;;;;10.80;99.90;;;;;;7331013;19;111709;-78
2021/12/13 09:39:22;;;;;;;;;;;10.80;99.90;;;;;;7343916;19;109285;-77
2021/12/13 09:41:53;;;;;;;;;;;10.80;99.90;;;;;;7338727;19;110739;-77
2021/12/13 09:44:28;;;;;;;;;;;10.80;99.90;;;;;;7340458;19;113090;-76
2021/12/13 09:47:04;;;;;;;;;;;10.90;99.90;;;;;;7346333;19;109206;-78
2021/12/13 09:49:31;;;;;;;;;;;10.80;99.90;;;;;;7341172;19;110890;-78
2021/12/13 09:52:16;;;;;;;;;;;10.80;99.90;;;;;;7343718;19;111816;-77
2021/12/13 09:54:48;;;;;;;;;;;10.80;99.90;;;;;;7343915;19;109336;-77
2021/12/13 09:57:23;;;;;;;;;;;10.90;99.90;;;;;;7346952;19;110810;-77
2021/12/13 10:00:14;;;;;;;;;;;10.90;99.90;;;;;;7342049;19;111328;-77
2021/12/13 10:02:41;;;;;;;;;;;10.90;99.90;;;;;;7342529;19;111064;-77
2021/12/13 10:05:10;;;;;;;;;;;10.90;99.90;;;;;;7343394;19;111823;-76
2021/12/13 10:07:39;;;;;;;;;;;10.90;99.90;;;;;;7343155;19;109928;-78
2021/12/13 10:10:11;;;;;;;;;;;10.90;99.90;;;;;;7343453;19;110581;-78
2021/12/13 10:12:44;;;;;;;;;;;10.90;99.90;;;;;;7344395;19;113731;-77
2021/12/13 10:15:14;;;;;;;;;;;11.00;99.90;;;;;;7340540;19;109263;-78
2021/12/13 10:17:43;;;;;;;;;;;10.90;99.90;;;;;;7345123;19;110675;-78
2021/12/13 10:20:21;;;;;;;;;;;10.90;99.90;;;;;;7347544;19;112007;-78
2021/12/13 10:22:53;;;;;;;;;;;10.90;99.90;;;;;;7344640;19;110659;-77
2021/12/13 10:25:31;;;;;;;;;;;10.90;99.90;;;;;;7340848;19;111913;-78
2021/12/13 10:28:04;;;;;;;;;;;10.90;99.90;;;;;;7343244;19;109201;-77
2021/12/13 10:30:35;;;;;;;;;;;11.00;99.90;;;;;;7343811;19;112098;-77
2021/12/13 10:33:02;;;;;;;;;;;10.90;99.90;;;;;;7340487;19;111731;-77
2021/12/13 10:35:31;;;;;;;;;;;11.00;99.90;;;;;;7344964;19;109809;-77
2021/12/13 10:38:04;;;;;;;;;;;11.00;99.90;;;;;;7342100;19;110705;-77
2021/12/13 10:40:34;;;;;;;;;;;11.00;99.90;;;;;;7350993;19;111837;-77
2021/12/13 10:43:04;;;;;;;;;;;11.00;99.90;;;;;;7353821;19;109362;-77
2021/12/13 10:45:42;;;;;;;;;;;11.00;99.90;;;;;;7348877;19;113215;-77
2021/12/13 10:48:11;;;;;;;;;;;11.00;99.90;;;;;;7347878;19;111568;-77
2021/12/13 10:50:42;;;;;;;;;;;11.10;99.90;;;;;;7351017;19;110791;-77
2021/12/13 10:53:10;;;;;;;;;;;11.10;99.90;;;;;;7348789;19;111694;-77
2021/12/13 10:55:44;;;;;;;;;;;11.10;99.90;;;;;;7349560;19;109386;-77
2021/12/13 10:58:14;;;;;;;;;;;11.10;99.90;;;;;;7351659;19;110687;-77
2021/12/13 11:00:43;;;;;;;;;;;11.10;99.90;;;;;;7345936;19;111671;-77
2021/12/13 11:03:16;;;;;;;;;;;11.10;99.90;;;;;;7355851;19;110248;-77
2021/12/13 11:05:48;;;;;;;;;;;11.10;99.90;;;;;;7343511;19;111706;-77
2021/12/13 11:08:17;;;;;;;;;;;11.10;99.90;;;;;;7348699;19;111440;-77
2021/12/13 11:10:46;;;;;;;;;;;11.10;99.90;;;;;;7346822;19;110637;-77
2021/12/13 11:13:22;;;;;;;;;;;11.20;99.90;;;;;;7336989;19;112749;-77
2021/12/13 11:15:50;;;;;;;;;;;11.20;99.90;;;;;;7348861;19;109579;-77
2021/12/13 11:18:20;;;;;;;;;;;11.20;99.90;;;;;;7345444;19;110644;-77
2021/12/13 11:20:49;;;;;;;;;;;11.20;99.90;;;;;;7349206;19;111291;-77
2021/12/13 11:23:19;;;;;;;;;;;11.10;99.90;;;;;;7345845;19;110433;-77
2021/12/13 11:25:57;;;;;;;;;;;11.10;99.90;;;;;;7355350;19;110721;-77
2021/12/13 11:28:25;;;;;;;;;;;11.20;99.90;;;;;;7348143;19;109295;-77
2021/12/13 11:30:53;;;;;;;;;;;11.20;99.90;;;;;;7348080;19;110319;-78
2021/12/13 11:33:48;;;;;;;;;;;11.20;99.90;;;;;;7344754;19;113027;-78
2021/12/13 11:36:31;;;;;;;;;;;11.10;99.90;;;;;;7347765;19;109505;-77
2021/12/13 11:39:24;;;;;;;;;;;11.10;99.90;;;;;;7349879;19;110624;-77
2021/12/13 11:42:10;;;;;;;;;;;11.10;99.90;;;;;;7341676;19;112178;-77
2021/12/13 11:44:49;;;;;;;;;;;11.20;99.90;;;;;;7348234;19;110541;-77
2021/12/13 11:47:34;;;;;;;;;;;11.20;99.90;;;;;;7346907;19;110858;-77
2021/12/13 11:50:20;;;;;;;;;;;11.30;99.90;;;;;;7350837;19;111816;-76
2021/12/13 11:53:08;;;;;;;;;;;11.30;99.90;;;;;;7348401;19;110449;-77
2021/12/13 11:55:53;;;;;;;;;;;11.30;99.90;;;;;;7333647;19;112063;-77
2021/12/13 11:58:39;;;;;;;;;;;11.30;99.90;;;;;;7348184;19;109336;-78
2021/12/13 12:01:21;;;;;;;;;;;11.20;99.90;;;;;;7345824;19;110867;-77
2021/12/13 12:03:54;;;;;;;;;;;11.30;99.90;;;;;;7343415;19;112771;-77
2021/12/13 12:06:23;;;;;;;;;;;11.30;99.90;;;;;;7343391;19;110363;-77
2021/12/13 12:09:09;;;;;;;;;;;11.30;99.90;;;;;;7344836;19;110960;-77
2021/12/13 12:12:02;;;;;;;;;;;11.30;99.90;;;;;;7347092;19;112031;-77
2021/12/13 12:14:29;;;;;;;;;;;11.40;99.90;;;;;;7347178;19;109623;-77
2021/12/13 12:16:58;;;;;;;;;;;11.40;99.90;;;;;;7346325;19;112271;-76
2021/12/13 12:19:27;;;;;;;;;;;11.40;99.90;;;;;;7344787;19;112256;-77
2021/12/13 12:21:56;;;;;;;;;;;11.40;99.90;;;;;;7345287;19;111012;-76
2021/12/13 12:24:27;;;;;;;;;;;11.40;99.90;;;;;;7347410;19;112805;-77
2021/12/13 12:27:02;;;;;;;;;;;11.40;99.90;;;;;;7344991;19;109996;-76
2021/12/13 12:29:38;;;;;;;;;;;11.40;99.90;;;;;;7348018;19;110729;-77
2021/12/13 12:32:13;;;;;;;;;;;11.40;99.90;;;;;;7345167;19;111792;-77
2021/12/13 12:34:58;;;;;;;;;;;11.40;99.90;;;;;;7344764;19;109925;-77
2021/12/13 12:37:25;;;;;;;;;;;11.40;99.90;;;;;;7352609;19;110438;-77
2021/12/13 12:39:59;;;;;;;;;;;11.40;99.90;;;;;;7343997;19;110431;-78
2021/12/13 12:42:25;;;;;;;;;;;11.40;99.90;;;;;;7346322;19;111562;-77
2021/12/13 12:44:55;;;;;;;;;;;11.40;99.90;;;;;;7340226;19;112352;-77
2021/12/13 12:47:34;;;;;;;;;;;11.40;99.90;;;;;;7344792;19;109417;-77
2021/12/13 12:50:18;;;;;;;;;;;11.40;99.90;;;;;;7343791;19;110984;-76
2021/12/13 12:52:54;;;;;;;;;;;11.50;99.90;;;;;;7346048;19;111964;-77
2021/12/13 12:55:23;;;;;;;;;;;11.50;99.90;;;;;;7344553;19;109434;-77
2021/12/13 12:57:50;;;;;;;;;;;11.50;99.90;;;;;;7350808;19;110622;-78
2021/12/13 13:00:24;;;;;;;;;;;11.50;99.90;;;;;;7343509;19;109610;-77
2021/12/13 13:02:51;;;;;;;;;;;11.50;99.90;;;;;;7341137;19;110643;-76
2021/12/13 13:05:19;;;;;;;;;;;11.50;99.90;;;;;;7345873;19;111700;-77
2021/12/13 13:07:49;;;;;;;;;;;11.50;99.90;;;;;;7342446;19;109309;-77
2021/12/13 13:12:56;;;;;;;;;;;11.50;99.90;;;;;;7342998;19;111815;-76
2021/12/13 13:15:28;;;;;;;;;;;11.50;99.90;;;;;;7342072;19;110727;-77
2021/12/13 13:18:00;;;;;;;;;;;11.50;99.90;;;;;;7345556;19;110564;-77
2021/12/13 13:20:34;;;;;;;;;;;11.50;99.90;;;;;;7345431;19;111971;-78
2021/12/13 13:23:05;;;;;;;;;;;11.50;99.90;;;;;;7341692;19;121066;-77
2021/12/13 13:25:33;;;;;;;;;;;11.50;99.90;;;;;;7343563;19;112189;-78
2021/12/13 13:28:01;;;;;;;;;;;11.50;99.90;;;;;;7347363;19;110418;-76
2021/12/13 13:30:41;;;;;;;;;;;11.50;99.90;;;;;;7341679;19;110580;-76
2021/12/13 13:33:08;;;;;;;;;;;11.50;99.90;;;;;;7345265;19;112220;-77
2021/12/13 13:35:35;;;;;;;;;;;11.50;99.90;;;;;;7343565;19;109370;-77
2021/12/13 13:38:04;;;;;;;;;;;11.50;99.90;;;;;;7344912;19;111552;-76
2021/12/13 13:40:32;;;;;;;;;;;11.50;99.90;;;;;;7343592;19;111749;-78
2021/12/13 13:43:00;;;;;;;;;;;11.50;99.90;;;;;;7347187;19;109513;-77
2021/12/13 13:45:31;;;;;;;;;;;11.50;99.90;;;;;;7342964;19;111821;-77
2021/12/13 13:48:03;;;;;;;;;;;11.50;99.90;;;;;;7343406;19;109397;-77
2021/12/13 13:50:32;;;;;;;;;;;11.50;99.90;;;;;;7345773;19;110647;-77
2021/12/13 13:53:01;;;;;;;;;;;11.50;99.90;;;;;;7340199;19;111670;-77
2021/12/13 13:55:49;;;;;;;;;;;11.50;99.90;;;;;;7342173;19;109760;-77
2021/12/13 13:58:18;;;;;;;;;;;11.50;99.90;;;;;;7343277;19;110606;-77
2021/12/13 14:00:48;;;;;;;;;;;11.50;99.90;;;;;;7343193;19;111714;-78
2021/12/13 14:03:15;;;;;;;;;;;11.50;99.90;;;;;;7344996;19;110029;-78
2021/12/13 14:05:44;;;;;;;;;;;11.50;99.90;;;;;;7345660;19;110735;-78
2021/12/13 14:08:21;;;;;;;;;;;11.50;99.90;;;;;;7344132;19;110975;-77
2021/12/13 14:10:48;;;;;;;;;;;11.50;99.90;;;;;;7340471;19;110709;-78
2021/12/13 14:13:16;;;;;;;;;;;11.50;99.90;;;;;;7346369;19;111543;-76
2021/12/13 14:15:46;;;;;;;;;;;11.50;99.90;;;;;;7346404;19;109829;-77
2021/12/13 14:18:16;;;;;;;;;;;11.50;99.90;;;;;;7350815;19;111086;-78
2021/12/13 14:20:45;;;;;;;;;;;11.50;99.90;;;;;;7348613;19;112496;-77
2021/12/13 14:23:12;;;;;;;;;;;11.50;99.90;;;;;;7350079;19;109433;-77
2021/12/13 14:25:42;;;;;;;;;;;11.50;99.90;;;;;;7352697;19;110912;-77
2021/12/13 14:28:11;;;;;;;;;;;11.40;99.90;;;;;;7354888;19;111899;-76
2021/12/13 14:30:42;;;;;;;;;;;11.50;99.90;;;;;;7352512;19;110782;-77
2021/12/13 14:33:28;;;;;;;;;;;11.40;99.90;;;;;;7348747;19;111681;-77
2021/12/13 14:36:07;;;;;;;;;;;11.40;99.90;;;;;;7351989;19;109396;-77
2021/12/13 14:38:35;;;;;;;;;;;11.40;99.90;;;;;;7349178;19;110925;-76
2021/12/13 14:41:05;;;;;;;;;;;11.50;99.90;;;;;;7350984;19;112181;-77
2021/12/13 14:43:36;;;;;;;;;;;11.40;99.90;;;;;;7348355;19;109411;-77
2021/12/13 14:46:08;;;;;;;;;;;11.40;99.90;;;;;;7349027;19;113470;-76